sensor_id;sensor_type;location;lat;lon;timestamp;pressure;altitude;pressure_sealevel;temperature
66113;BMP280;52893;52.870;5.822;2022-11-14T00:02:41;101804.03;;;6.72
66113;BMP280;52893;52.870;5.822;2022-11-14T00:05:27;101788.56;;;6.78
66113;BMP280;52893;52.870;5.822;2022-11-14T00:08:15;101779.88;;;6.81
66113;BMP280;52893;52.870;5.822;2022-11-14T00:11:02;101774.44;;;6.86
66113;BMP280;52893;52.870;5.822;2022-11-14T00:13:49;101773.88;;;6.89
66113;BMP280;52893;52.870;5.822;2022-11-14T00:16:35;101763.84;;;6.89
66113;BMP280;52893;52.870;5.822;2022-11-14T00:19:21;101765.19;;;6.92
66113;BMP280;52893;52.870;5.822;2022-11-14T00:22:07;101754.91;;;6.94
66113;BMP280;52893;52.870;5.822;2022-11-14T00:24:52;101758.94;;;6.96
66113;BMP280;52893;52.870;5.822;2022-11-14T00:27:38;101758.94;;;6.96
66113;BMP280;52893;52.870;5.822;2022-11-14T00:30:26;101771.19;;;6.94
66113;BMP280;52893;52.870;5.822;2022-11-14T00:33:12;101760.31;;;6.94
66113;BMP280;52893;52.870;5.822;2022-11-14T00:35:58;101754.91;;;6.94
66113;BMP280;52893;52.870;5.822;2022-11-14T00:38:44;101764.06;;;6.98
66113;BMP280;52893;52.870;5.822;2022-11-14T00:41:29;101768.41;;;6.99
66113;BMP280;52893;52.870;5.822;2022-11-14T00:44:15;101766.53;;;6.99
66113;BMP280;52893;52.870;5.822;2022-11-14T00:47:02;101769.53;;;7.03
66113;BMP280;52893;52.870;5.822;2022-11-14T00:49:48;101754.06;;;7.03
66113;BMP280;52893;52.870;5.822;2022-11-14T00:52:34;101754.34;;;7.07
66113;BMP280;52893;52.870;5.822;2022-11-14T00:55:20;101740.44;;;7.08
66113;BMP280;52893;52.870;5.822;2022-11-14T00:58:06;101716.91;;;6.94
66113;BMP280;52893;52.870;5.822;2022-11-14T01:00:52;101736.91;;;7.13
66113;BMP280;52893;52.870;5.822;2022-11-14T01:03:39;101732.81;;;7.10
66113;BMP280;52893;52.870;5.822;2022-11-14T01:06:25;101724.16;;;7.13
66113;BMP280;52893;52.870;5.822;2022-11-14T01:09:11;101710.88;;;7.07
66113;BMP280;52893;52.870;5.822;2022-11-14T01:11:56;101727.13;;;7.17
66113;BMP280;52893;52.870;5.822;2022-11-14T01:14:42;101717.56;;;7.19
66113;BMP280;52893;52.870;5.822;2022-11-14T01:17:28;101727.34;;;7.21
66113;BMP280;52893;52.870;5.822;2022-11-14T01:20:15;101732.25;;;7.24
66113;BMP280;52893;52.870;5.822;2022-11-14T01:23:01;101724.09;;;7.29
66113;BMP280;52893;52.870;5.822;2022-11-14T01:25:47;101713.22;;;7.29
66113;BMP280;52893;52.870;5.822;2022-11-14T01:28:33;101718.63;;;7.34
66113;BMP280;52893;52.870;5.822;2022-11-14T01:31:22;101711.28;;;7.34
66113;BMP280;52893;52.870;5.822;2022-11-14T01:34:08;101698.22;;;7.36
66113;BMP280;52893;52.870;5.822;2022-11-14T01:36:55;101700.66;;;7.38
66113;BMP280;52893;52.870;5.822;2022-11-14T01:39:41;101703.94;;;7.40
66113;BMP280;52893;52.870;5.822;2022-11-14T01:42:26;101695.50;;;7.41
66113;BMP280;52893;52.870;5.822;2022-11-14T01:45:49;101691.91;;;7.46
66113;BMP280;52893;52.870;5.822;2022-11-14T01:48:39;101669.44;;;7.40
66113;BMP280;52893;52.870;5.822;2022-11-14T01:51:28;101690.84;;;7.47
66113;BMP280;52893;52.870;5.822;2022-11-14T01:54:20;101679.69;;;7.48
66113;BMP280;52893;52.870;5.822;2022-11-14T01:57:08;101674.25;;;7.48
66113;BMP280;52893;52.870;5.822;2022-11-14T01:59:56;101665.56;;;7.51
66113;BMP280;52893;52.870;5.822;2022-11-14T02:02:44;101666.66;;;7.50
66113;BMP280;52893;52.870;5.822;2022-11-14T02:05:30;101657.97;;;7.48
66113;BMP280;52893;52.870;5.822;2022-11-14T02:08:17;101657.41;;;7.51
66113;BMP280;52893;52.870;5.822;2022-11-14T02:11:04;101655.25;;;7.48
66113;BMP280;52893;52.870;5.822;2022-11-14T02:13:50;101646.56;;;7.51
66113;BMP280;52893;52.870;5.822;2022-11-14T02:16:37;101646.28;;;7.53
66113;BMP280;52893;52.870;5.822;2022-11-14T02:19:23;101647.09;;;7.53
66113;BMP280;52893;52.870;5.822;2022-11-14T02:22:11;101639.41;;;7.55
66113;BMP280;52893;52.870;5.822;2022-11-14T02:24:57;101633.72;;;7.57
66113;BMP280;52893;52.870;5.822;2022-11-14T02:27:42;101627.47;;;7.56
66113;BMP280;52893;52.870;5.822;2022-11-14T02:30:28;101630.72;;;7.58
66113;BMP280;52893;52.870;5.822;2022-11-14T02:33:14;101588.22;;;7.39
66113;BMP280;52893;52.870;5.822;2022-11-14T02:36:00;101617.69;;;7.55
66113;BMP280;52893;52.870;5.822;2022-11-14T02:38:47;101610.16;;;7.52
66113;BMP280;52893;52.870;5.822;2022-11-14T02:41:33;101603.09;;;7.51
66113;BMP280;52893;52.870;5.822;2022-11-14T02:44:19;101613.69;;;7.48
66113;BMP280;52893;52.870;5.822;2022-11-14T02:47:05;101606.91;;;7.45
66113;BMP280;52893;52.870;5.822;2022-11-14T02:49:51;101608.78;;;7.45
66113;BMP280;52893;52.870;5.822;2022-11-14T02:52:36;101602.56;;;7.44
66113;BMP280;52893;52.870;5.822;2022-11-14T02:55:23;101601.75;;;7.44
66113;BMP280;52893;52.870;5.822;2022-11-14T02:58:09;101592.81;;;7.43
66113;BMP280;52893;52.870;5.822;2022-11-14T03:00:55;101593.94;;;7.42
66113;BMP280;52893;52.870;5.822;2022-11-14T03:03:41;101593.94;;;7.42
66113;BMP280;52893;52.870;5.822;2022-11-14T03:06:26;101580.63;;;7.41
66113;BMP280;52893;52.870;5.822;2022-11-14T03:09:12;101565.69;;;7.38
66113;BMP280;52893;52.870;5.822;2022-11-14T03:11:59;101569.75;;;7.36
66113;BMP280;52893;52.870;5.822;2022-11-14T03:14:45;101571.38;;;7.37
66113;BMP280;52893;52.870;5.822;2022-11-14T03:17:31;101569.25;;;7.34
66113;BMP280;52893;52.870;5.822;2022-11-14T03:20:17;101570.59;;;7.31
66113;BMP280;52893;52.870;5.822;2022-11-14T03:23:04;101564.38;;;7.31
66113;BMP280;52893;52.870;5.822;2022-11-14T03:25:50;101560.28;;;7.33
66113;BMP280;52893;52.870;5.822;2022-11-14T03:28:37;101558.38;;;7.34
66113;BMP280;52893;52.870;5.822;2022-11-14T03:31:23;101561.09;;;7.34
66113;BMP280;52893;52.870;5.822;2022-11-14T03:34:09;101566.25;;;7.35
66113;BMP280;52893;52.870;5.822;2022-11-14T03:36:55;101556.47;;;7.34
66113;BMP280;52893;52.870;5.822;2022-11-14T03:39:41;101553.75;;;7.34
66113;BMP280;52893;52.870;5.822;2022-11-14T03:42:26;101535.84;;;7.33
66113;BMP280;52893;52.870;5.822;2022-11-14T03:45:14;101547.78;;;7.32
66113;BMP280;52893;52.870;5.822;2022-11-14T03:47:59;101537.47;;;7.34
66113;BMP280;52893;52.870;5.822;2022-11-14T03:50:45;101533.16;;;7.28
66113;BMP280;52893;52.870;5.822;2022-11-14T03:53:31;101541.31;;;7.28
66113;BMP280;52893;52.870;5.822;2022-11-14T03:56:17;101529.91;;;7.26
66113;BMP280;52893;52.870;5.822;2022-11-14T03:59:03;101524.47;;;7.26
66113;BMP280;52893;52.870;5.822;2022-11-14T04:01:50;101533.16;;;7.28
66113;BMP280;52893;52.870;5.822;2022-11-14T04:04:36;101525.28;;;7.27
66113;BMP280;52893;52.870;5.822;2022-11-14T04:07:22;101526.09;;;7.27
66113;BMP280;52893;52.870;5.822;2022-11-14T04:10:07;101523.97;;;7.19
66113;BMP280;52893;52.870;5.822;2022-11-14T04:12:53;101528.66;;;7.13
66113;BMP280;52893;52.870;5.822;2022-11-14T04:15:39;101527.59;;;7.09
66113;BMP280;52893;52.870;5.822;2022-11-14T04:18:26;101526.28;;;7.07
66113;BMP280;52893;52.870;5.822;2022-11-14T04:21:11;101537.16;;;7.07
66113;BMP280;52893;52.870;5.822;2022-11-14T04:23:57;101531.44;;;7.03
66113;BMP280;52893;52.870;5.822;2022-11-14T04:26:43;101532.25;;;7.04
66113;BMP280;52893;52.870;5.822;2022-11-14T04:29:29;101526.84;;;7.04
66113;BMP280;52893;52.870;5.822;2022-11-14T04:32:15;101528.47;;;7.05
66113;BMP280;52893;52.870;5.822;2022-11-14T04:35:02;101532.53;;;7.02
66113;BMP280;52893;52.870;5.822;2022-11-14T04:37:48;101529.56;;;6.99
66113;BMP280;52893;52.870;5.822;2022-11-14T04:40:34;101513.34;;;6.94
66113;BMP280;52893;52.870;5.822;2022-11-14T04:43:20;101497.66;;;6.81
66113;BMP280;52893;52.870;5.822;2022-11-14T04:46:05;101513.34;;;6.89
66113;BMP280;52893;52.870;5.822;2022-11-14T04:48:51;101504.69;;;6.87
66113;BMP280;52893;52.870;5.822;2022-11-14T04:51:39;101500.09;;;6.82
66113;BMP280;52893;52.870;5.822;2022-11-14T04:54:24;101498.22;;;6.78
66113;BMP280;52893;52.870;5.822;2022-11-14T04:57:10;101502.84;;;6.72
66113;BMP280;52893;52.870;5.822;2022-11-14T04:59:56;101491.25;;;6.66
66113;BMP280;52893;52.870;5.822;2022-11-14T05:02:42;101482.81;;;6.63
66113;BMP280;52893;52.870;5.822;2022-11-14T05:05:28;101475.53;;;6.58
66113;BMP280;52893;52.870;5.822;2022-11-14T05:08:15;101477.69;;;6.56
66113;BMP280;52893;52.870;5.822;2022-11-14T05:11:01;101467.69;;;6.52
66113;BMP280;52893;52.870;5.822;2022-11-14T05:13:46;101468.53;;;6.47
66113;BMP280;52893;52.870;5.822;2022-11-14T05:16:32;101461.53;;;6.41
66113;BMP280;52893;52.870;5.822;2022-11-14T05:19:18;101461.00;;;6.39
66113;BMP280;52893;52.870;5.822;2022-11-14T05:22:04;101459.38;;;6.38
66113;BMP280;52893;52.870;5.822;2022-11-14T05:24:51;101464.53;;;6.34
66113;BMP280;52893;52.870;5.822;2022-11-14T05:27:36;101459.44;;;6.28
66113;BMP280;52893;52.870;5.822;2022-11-14T05:30:23;101457.75;;;6.32
66113;BMP280;52893;52.870;5.822;2022-11-14T05:33:09;101464.53;;;6.40
66113;BMP280;52893;52.870;5.822;2022-11-14T05:35:55;101450.16;;;6.39
66113;BMP280;52893;52.870;5.822;2022-11-14T05:38:41;101440.38;;;6.33
66113;BMP280;52893;52.870;5.822;2022-11-14T05:41:28;101453.91;;;6.43
66113;BMP280;52893;52.870;5.822;2022-11-14T05:44:13;101456.34;;;6.45
66113;BMP280;52893;52.870;5.822;2022-11-14T05:46:59;101449.00;;;6.45
66113;BMP280;52893;52.870;5.822;2022-11-14T05:49:45;101457.16;;;6.45
66113;BMP280;52893;52.870;5.822;2022-11-14T05:52:31;101458.22;;;6.49
66113;BMP280;52893;52.870;5.822;2022-11-14T05:55:16;101449.78;;;6.51
66113;BMP280;52893;52.870;5.822;2022-11-14T05:58:04;101456.56;;;6.53
66113;BMP280;52893;52.870;5.822;2022-11-14T06:00:49;101438.94;;;6.56
66113;BMP280;52893;52.870;5.822;2022-11-14T06:03:37;101443.78;;;6.59
66113;BMP280;52893;52.870;5.822;2022-11-14T06:06:23;101453.84;;;6.58
66113;BMP280;52893;52.870;5.822;2022-11-14T06:09:08;101449.22;;;6.59
66113;BMP280;52893;52.870;5.822;2022-11-14T06:11:54;101449.50;;;6.57
66113;BMP280;52893;52.870;5.822;2022-11-14T06:14:41;101450.31;;;6.58
66113;BMP280;52893;52.870;5.822;2022-11-14T06:17:27;101443.25;;;6.57
66113;BMP280;52893;52.870;5.822;2022-11-14T06:20:13;101444.06;;;6.57
66113;BMP280;52893;52.870;5.822;2022-11-14T06:22:59;101452.22;;;6.57
66113;BMP280;52893;52.870;5.822;2022-11-14T06:25:45;101454.41;;;6.55
66113;BMP280;52893;52.870;5.822;2022-11-14T06:28:31;101447.38;;;6.49
66113;BMP280;52893;52.870;5.822;2022-11-14T06:31:19;101456.00;;;6.56
66113;BMP280;52893;52.870;5.822;2022-11-14T06:34:05;101462.25;;;6.57
66113;BMP280;52893;52.870;5.822;2022-11-14T06:36:50;101470.09;;;6.58
66113;BMP280;52893;52.870;5.822;2022-11-14T06:39:36;101479.88;;;6.59
66113;BMP280;52893;52.870;5.822;2022-11-14T06:42:22;101473.34;;;6.60
66113;BMP280;52893;52.870;5.822;2022-11-14T06:45:08;101476.59;;;6.62
66113;BMP280;52893;52.870;5.822;2022-11-14T06:47:58;101471.16;;;6.62
66113;BMP280;52893;52.870;5.822;2022-11-14T06:50:50;101470.34;;;6.62
66113;BMP280;52893;52.870;5.822;2022-11-14T06:53:36;101472.78;;;6.63
66113;BMP280;52893;52.870;5.822;2022-11-14T06:56:21;101471.44;;;6.66
66113;BMP280;52893;52.870;5.822;2022-11-14T06:59:08;101469.81;;;6.65
66113;BMP280;52893;52.870;5.822;2022-11-14T07:01:53;101467.91;;;6.65
66113;BMP280;52893;52.870;5.822;2022-11-14T07:04:40;101470.06;;;6.63
66113;BMP280;52893;52.870;5.822;2022-11-14T07:07:26;101467.38;;;6.63
66113;BMP280;52893;52.870;5.822;2022-11-14T07:10:12;101459.22;;;6.63
66113;BMP280;52893;52.870;5.822;2022-11-14T07:12:58;101466.00;;;6.66
66113;BMP280;52893;52.870;5.822;2022-11-14T07:15:48;101469.25;;;6.68
66113;BMP280;52893;52.870;5.822;2022-11-14T07:18:35;101461.41;;;6.66
66113;BMP280;52893;52.870;5.822;2022-11-14T07:21:23;101456.50;;;6.63
66113;BMP280;52893;52.870;5.822;2022-11-14T07:24:09;101460.31;;;6.62
66113;BMP280;52893;52.870;5.822;2022-11-14T07:26:54;101462.75;;;6.64
66113;BMP280;52893;52.870;5.822;2022-11-14T07:29:40;101457.31;;;6.64
66113;BMP280;52893;52.870;5.822;2022-11-14T07:32:26;101458.69;;;6.61
66113;BMP280;52893;52.870;5.822;2022-11-14T07:35:12;101465.75;;;6.62
66113;BMP280;52893;52.870;5.822;2022-11-14T07:38:02;101455.22;;;6.56
66113;BMP280;52893;52.870;5.822;2022-11-14T07:40:52;101467.63;;;6.67
66113;BMP280;52893;52.870;5.822;2022-11-14T07:43:39;101462.22;;;6.67
66113;BMP280;52893;52.870;5.822;2022-11-14T07:46:25;101440.25;;;6.63
66113;BMP280;52893;52.870;5.822;2022-11-14T07:49:11;101458.63;;;6.77
66113;BMP280;52893;52.870;5.822;2022-11-14T07:51:57;101438.31;;;6.69
66113;BMP280;52893;52.870;5.822;2022-11-14T07:54:44;101456.94;;;6.81
66113;BMP280;52893;52.870;5.822;2022-11-14T07:57:30;101463.72;;;6.83
66113;BMP280;52893;52.870;5.822;2022-11-14T08:00:16;101463.44;;;6.85
66113;BMP280;52893;52.870;5.822;2022-11-14T08:03:02;101461.25;;;6.87
66113;BMP280;52893;52.870;5.822;2022-11-14T08:05:48;101467.75;;;6.91
66113;BMP280;52893;52.870;5.822;2022-11-14T08:08:34;101462.78;;;6.98
66113;BMP280;52893;52.870;5.822;2022-11-14T08:11:21;101456.25;;;7.04
66113;BMP280;52893;52.870;5.822;2022-11-14T08:14:21;101461.59;;;7.14
66113;BMP280;52893;52.870;5.822;2022-11-14T08:17:06;101455.00;;;7.20
66113;BMP280;52893;52.870;5.822;2022-11-14T08:19:52;101450.06;;;7.27
66113;BMP280;52893;52.870;5.822;2022-11-14T08:22:38;101446.63;;;7.45
66113;BMP280;52893;52.870;5.822;2022-11-14T08:25:24;101434.53;;;7.62
66113;BMP280;52893;52.870;5.822;2022-11-14T08:28:11;101431.41;;;7.73
66113;BMP280;52893;52.870;5.822;2022-11-14T08:31:00;101438.50;;;7.98
66113;BMP280;52893;52.870;5.822;2022-11-14T08:33:46;101432.59;;;8.10
66113;BMP280;52893;52.870;5.822;2022-11-14T08:36:34;101430.13;;;8.32
66113;BMP280;52893;52.870;5.822;2022-11-14T08:39:19;101431.19;;;8.55
66113;BMP280;52893;52.870;5.822;2022-11-14T08:42:05;101436.81;;;8.77
66113;BMP280;52893;52.870;5.822;2022-11-14T08:44:53;101427.13;;;9.03
66113;BMP280;52893;52.870;5.822;2022-11-14T08:47:38;101417.00;;;9.36
66113;BMP280;52893;52.870;5.822;2022-11-14T08:50:24;101413.59;;;9.71
66113;BMP280;52893;52.870;5.822;2022-11-14T08:53:10;101418.50;;;9.83
66113;BMP280;52893;52.870;5.822;2022-11-14T08:55:56;101422.31;;;10.09
66113;BMP280;52893;52.870;5.822;2022-11-14T08:58:41;101415.91;;;10.27
66113;BMP280;52893;52.870;5.822;2022-11-14T09:01:29;101419.22;;;10.38
66113;BMP280;52893;52.870;5.822;2022-11-14T09:04:16;101405.91;;;10.37
66113;BMP280;52893;52.870;5.822;2022-11-14T09:07:02;101412.34;;;10.41
66113;BMP280;52893;52.870;5.822;2022-11-14T09:09:47;101411.91;;;10.47
66113;BMP280;52893;52.870;5.822;2022-11-14T09:12:33;101411.66;;;10.57
66113;BMP280;52893;52.870;5.822;2022-11-14T09:15:19;101404.41;;;10.53
66113;BMP280;52893;52.870;5.822;2022-11-14T09:18:07;101392.97;;;10.51
66113;BMP280;52893;52.870;5.822;2022-11-14T09:20:58;101390.31;;;10.59
66113;BMP280;52893;52.870;5.822;2022-11-14T09:23:45;101390.88;;;10.92
66113;BMP280;52893;52.870;5.822;2022-11-14T09:26:31;101386.03;;;10.89
66113;BMP280;52893;52.870;5.822;2022-11-14T09:29:17;101390.75;;;11.06
66113;BMP280;52893;52.870;5.822;2022-11-14T09:32:03;101385.94;;;11.51
66113;BMP280;52893;52.870;5.822;2022-11-14T09:34:50;101387.47;;;11.83
66113;BMP280;52893;52.870;5.822;2022-11-14T09:37:36;101369.94;;;11.75
66113;BMP280;52893;52.870;5.822;2022-11-14T09:40:22;101374.81;;;11.87
66113;BMP280;52893;52.870;5.822;2022-11-14T09:43:21;101370.13;;;12.13
66113;BMP280;52893;52.870;5.822;2022-11-14T09:46:15;101371.22;;;12.38
66113;BMP280;52893;52.870;5.822;2022-11-14T09:49:02;101353.31;;;12.57
66113;BMP280;52893;52.870;5.822;2022-11-14T09:51:57;101356.06;;;12.49
66113;BMP280;52893;52.870;5.822;2022-11-14T09:54:49;101344.06;;;12.79
66113;BMP280;52893;52.870;5.822;2022-11-14T09:57:35;101352.25;;;12.88
66113;BMP280;52893;52.870;5.822;2022-11-14T10:00:23;101343.34;;;12.99
66113;BMP280;52893;52.870;5.822;2022-11-14T10:03:13;101342.41;;;12.95
66113;BMP280;52893;52.870;5.822;2022-11-14T10:06:11;101357.03;;;13.08
66113;BMP280;52893;52.870;5.822;2022-11-14T10:09:20;101357.34;;;13.07
66113;BMP280;52893;52.870;5.822;2022-11-14T10:12:12;101360.78;;;13.24
66113;BMP280;52893;52.870;5.822;2022-11-14T10:15:19;101352.16;;;13.43
66113;BMP280;52893;52.870;5.822;2022-11-14T10:18:22;101345.75;;;13.80
66113;BMP280;52893;52.870;5.822;2022-11-14T10:24:30;101347.22;;;13.98
66113;BMP280;52893;52.870;5.822;2022-11-14T10:27:25;101352.81;;;13.81
66113;BMP280;52893;52.870;5.822;2022-11-14T10:30:14;101352.28;;;13.67
66113;BMP280;52893;52.870;5.822;2022-11-14T10:33:19;101340.50;;;13.67
66113;BMP280;52893;52.870;5.822;2022-11-14T10:36:12;101340.75;;;13.94
66113;BMP280;52893;52.870;5.822;2022-11-14T10:39:09;101326.91;;;14.12
66113;BMP280;52893;52.870;5.822;2022-11-14T10:42:01;101342.66;;;14.35
66113;BMP280;52893;52.870;5.822;2022-11-14T10:44:50;101320.50;;;14.20
66113;BMP280;52893;52.870;5.822;2022-11-14T10:47:40;101313.91;;;14.33
66113;BMP280;52893;52.870;5.822;2022-11-14T10:50:35;101299.97;;;14.62
66113;BMP280;52893;52.870;5.822;2022-11-14T10:53:28;101298.41;;;14.97
66113;BMP280;52893;52.870;5.822;2022-11-14T10:56:17;101288.25;;;15.38
66113;BMP280;52893;52.870;5.822;2022-11-14T10:59:04;101292.13;;;15.37
66113;BMP280;52893;52.870;5.822;2022-11-14T11:01:54;101287.25;;;15.58
66113;BMP280;52893;52.870;5.822;2022-11-14T11:04:41;101278.75;;;15.63
66113;BMP280;52893;52.870;5.822;2022-11-14T11:07:28;101280.13;;;15.57
66113;BMP280;52893;52.870;5.822;2022-11-14T11:10:34;101278.91;;;14.90
66113;BMP280;52893;52.870;5.822;2022-11-14T11:13:49;101264.44;;;13.88
66113;BMP280;52893;52.870;5.822;2022-11-14T11:16:37;101270.47;;;13.28
66113;BMP280;52893;52.870;5.822;2022-11-14T11:19:24;101257.19;;;12.80
66113;BMP280;52893;52.870;5.822;2022-11-14T11:22:26;101240.81;;;12.33
66113;BMP280;52893;52.870;5.822;2022-11-14T11:25:22;101253.72;;;12.16
66113;BMP280;52893;52.870;5.822;2022-11-14T11:28:11;101251.00;;;11.90
66113;BMP280;52893;52.870;5.822;2022-11-14T11:30:58;101246.69;;;11.80
66113;BMP280;52893;52.870;5.822;2022-11-14T11:33:46;101237.19;;;11.69
66113;BMP280;52893;52.870;5.822;2022-11-14T11:36:37;101229.63;;;11.66
66113;BMP280;52893;52.870;5.822;2022-11-14T11:39:27;101212.25;;;11.62
66113;BMP280;52893;52.870;5.822;2022-11-14T11:42:17;101214.38;;;11.65
66113;BMP280;52893;52.870;5.822;2022-11-14T11:45:10;101210.34;;;11.54
66113;BMP280;52893;52.870;5.822;2022-11-14T11:48:03;101217.41;;;11.46
66113;BMP280;52893;52.870;5.822;2022-11-14T11:50:51;101223.84;;;11.50
66113;BMP280;52893;52.870;5.822;2022-11-14T11:53:38;101224.19;;;11.49
66113;BMP280;52893;52.870;5.822;2022-11-14T11:56:30;101195.53;;;11.38
66113;BMP280;52893;52.870;5.822;2022-11-14T11:59:24;101212.56;;;11.52
66113;BMP280;52893;52.870;5.822;2022-11-14T12:02:20;101216.63;;;11.54
66113;BMP280;52893;52.870;5.822;2022-11-14T12:05:12;101212.09;;;11.50
66113;BMP280;52893;52.870;5.822;2022-11-14T12:08:02;101210.03;;;11.47
66113;BMP280;52893;52.870;5.822;2022-11-14T12:10:51;101210.66;;;11.44
66113;BMP280;52893;52.870;5.822;2022-11-14T12:13:52;101200.22;;;11.46
66113;BMP280;52893;52.870;5.822;2022-11-14T12:17:06;101205.19;;;11.44
66113;BMP280;52893;52.870;5.822;2022-11-14T12:20:19;101179.78;;;11.26
66113;BMP280;52893;52.870;5.822;2022-11-14T12:23:30;101189.75;;;11.31
66113;BMP280;52893;52.870;5.822;2022-11-14T12:26:31;101203.28;;;11.27
66113;BMP280;52893;52.870;5.822;2022-11-14T12:29:43;101192.66;;;11.26
66113;BMP280;52893;52.870;5.822;2022-11-14T12:32:32;101194.88;;;11.24
66113;BMP280;52893;52.870;5.822;2022-11-14T12:35:23;101191.66;;;11.22
66113;BMP280;52893;52.870;5.822;2022-11-14T12:38:14;101182.00;;;11.07
66113;BMP280;52893;52.870;5.822;2022-11-14T12:41:02;101176.38;;;11.12
66113;BMP280;52893;52.870;5.822;2022-11-14T12:43:50;101184.91;;;11.10
66113;BMP280;52893;52.870;5.822;2022-11-14T12:53:38;101164.63;;;10.94
66113;BMP280;52893;52.870;5.822;2022-11-14T13:00:00;101156.94;;;10.96
66113;BMP280;52893;52.870;5.822;2022-11-14T13:03:10;101158.03;;;10.95
66113;BMP280;52893;52.870;5.822;2022-11-14T13:06:00;101154.19;;;10.96
66113;BMP280;52893;52.870;5.822;2022-11-14T13:12:25;101153.06;;;10.97
66113;BMP280;52893;52.870;5.822;2022-11-14T13:15:30;101153.06;;;10.97
66113;BMP280;52893;52.870;5.822;2022-11-14T13:18:34;101155.97;;;10.92
66113;BMP280;52893;52.870;5.822;2022-11-14T13:25:20;101145.03;;;10.92
66113;BMP280;52893;52.870;5.822;2022-11-14T13:28:44;101148.56;;;10.93
66113;BMP280;52893;52.870;5.822;2022-11-14T13:31:49;101139.88;;;10.91
66113;BMP280;52893;52.870;5.822;2022-11-14T13:34:39;101137.97;;;10.91
66113;BMP280;52893;52.870;5.822;2022-11-14T13:37:39;101129.28;;;10.89
66113;BMP280;52893;52.870;5.822;2022-11-14T13:40:33;101136.19;;;10.87
66113;BMP280;52893;52.870;5.822;2022-11-14T13:43:23;101142.75;;;10.86
66113;BMP280;52893;52.870;5.822;2022-11-14T13:46:23;101133.28;;;10.83
66113;BMP280;52893;52.870;5.822;2022-11-14T13:49:26;101121.91;;;10.81
66113;BMP280;52893;52.870;5.822;2022-11-14T13:52:14;101115.13;;;10.79
66113;BMP280;52893;52.870;5.822;2022-11-14T13:55:01;101132.63;;;10.78
66113;BMP280;52893;52.870;5.822;2022-11-14T13:57:58;101129.09;;;10.77
66113;BMP280;52893;52.870;5.822;2022-11-14T14:01:08;101120.28;;;10.80
66113;BMP280;52893;52.870;5.822;2022-11-14T14:04:07;101132.63;;;10.78
66113;BMP280;52893;52.870;5.822;2022-11-14T14:07:06;101129.72;;;10.74
66113;BMP280;52893;52.870;5.822;2022-11-14T14:10:02;101134.22;;;10.70
66113;BMP280;52893;52.870;5.822;2022-11-14T14:13:01;101140.28;;;10.67
66113;BMP280;52893;52.870;5.822;2022-11-14T14:15:57;101124.09;;;10.62
66113;BMP280;52893;52.870;5.822;2022-11-14T14:18:53;101121.66;;;10.60
66113;BMP280;52893;52.870;5.822;2022-11-14T14:21:48;101116.03;;;10.57
66113;BMP280;52893;52.870;5.822;2022-11-14T14:24:39;101122.94;;;10.54
66113;BMP280;52893;52.870;5.822;2022-11-14T14:27:28;101131.25;;;10.49
66113;BMP280;52893;52.870;5.822;2022-11-14T14:30:19;101127.25;;;10.47
66113;BMP280;52893;52.870;5.822;2022-11-14T14:33:11;101119.38;;;10.45
66113;BMP280;52893;52.870;5.822;2022-11-14T14:35:57;101098.84;;;10.48
66113;BMP280;52893;52.870;5.822;2022-11-14T14:38:45;101077.81;;;10.48
66113;BMP280;52893;52.870;5.822;2022-11-14T14:41:31;101099.63;;;10.48
66113;BMP280;52893;52.870;5.822;2022-11-14T14:44:22;101099.13;;;10.46
66113;BMP280;52893;52.870;5.822;2022-11-14T14:47:15;101106.69;;;10.41
66113;BMP280;52893;52.870;5.822;2022-11-14T14:50:03;101111.78;;;10.34
66113;BMP280;52893;52.870;5.822;2022-11-14T14:52:55;101103.56;;;10.25
66113;BMP280;52893;52.870;5.822;2022-11-14T14:55:51;101108.84;;;10.21
66113;BMP280;52893;52.870;5.822;2022-11-14T14:58:37;101100.81;;;10.16
66113;BMP280;52893;52.870;5.822;2022-11-14T15:01:27;101085.25;;;10.17
66113;BMP280;52893;52.870;5.822;2022-11-14T15:04:17;101087.03;;;10.21
66113;BMP280;52893;52.870;5.822;2022-11-14T15:07:04;101079.97;;;10.20
66113;BMP280;52893;52.870;5.822;2022-11-14T15:09:51;101077.56;;;10.27
66113;BMP280;52893;52.870;5.822;2022-11-14T15:12:39;101080.50;;;10.31
66113;BMP280;52893;52.870;5.822;2022-11-14T15:15:26;101084.50;;;10.34
66113;BMP280;52893;52.870;5.822;2022-11-14T15:18:17;101083.53;;;10.30
66113;BMP280;52893;52.870;5.822;2022-11-14T15:21:09;101079.69;;;10.31
66113;BMP280;52893;52.870;5.822;2022-11-14T15:23:59;101081.28;;;10.32
66113;BMP280;52893;52.870;5.822;2022-11-14T15:26:46;101080.50;;;10.31
66113;BMP280;52893;52.870;5.822;2022-11-14T15:29:34;101081.91;;;10.29
66113;BMP280;52893;52.870;5.822;2022-11-14T15:32:22;101084.63;;;10.29
66113;BMP280;52893;52.870;5.822;2022-11-14T15:35:19;101093.16;;;10.27
66113;BMP280;52893;52.870;5.822;2022-11-14T15:38:18;101070.31;;;10.14
66113;BMP280;52893;52.870;5.822;2022-11-14T15:41:14;101080.94;;;10.24
66113;BMP280;52893;52.870;5.822;2022-11-14T15:44:01;101087.84;;;10.22
66113;BMP280;52893;52.870;5.822;2022-11-14T15:46:48;101086.53;;;10.19
66113;BMP280;52893;52.870;5.822;2022-11-14T15:49:34;101083.78;;;10.19
66113;BMP280;52893;52.870;5.822;2022-11-14T15:52:23;101081.72;;;10.16
66113;BMP280;52893;52.870;5.822;2022-11-14T15:55:13;101066.41;;;9.98
66113;BMP280;52893;52.870;5.822;2022-11-14T15:57:59;101088.41;;;10.10
66113;BMP280;52893;52.870;5.822;2022-11-14T16:00:48;101087.47;;;10.06
66113;BMP280;52893;52.870;5.822;2022-11-14T16:03:36;101088.56;;;10.05
66113;BMP280;52893;52.870;5.822;2022-11-14T16:06:22;101081.50;;;10.04
66113;BMP280;52893;52.870;5.822;2022-11-14T16:09:13;101084.84;;;10.01
66113;BMP280;52893;52.870;5.822;2022-11-14T16:11:59;101078.28;;;10.02
66113;BMP280;52893;52.870;5.822;2022-11-14T16:14:45;101052.53;;;9.86
66113;BMP280;52893;52.870;5.822;2022-11-14T16:17:34;101080.50;;;10.00
66113;BMP280;52893;52.870;5.822;2022-11-14T16:20:25;101083.59;;;9.99
66113;BMP280;52893;52.870;5.822;2022-11-14T16:23:11;101085.81;;;9.97
66113;BMP280;52893;52.870;5.822;2022-11-14T16:25:58;101079.56;;;9.96
66113;BMP280;52893;52.870;5.822;2022-11-14T16:28:43;101065.72;;;9.93
66113;BMP280;52893;52.870;5.822;2022-11-14T16:31:29;101060.56;;;9.91